logo dgac
Jueves 24 de Mayo del 2018
Buscar por aerodromo o helipuerto
Ingrese nombre de aeródromo, localidad o designador OACI:
METAR del 23-05-2018 a las 22:00 UTC
METAR SCRD 232200Z 00000KT CAVOK 14/06 Q1018
Visibilidad: 10 km o más,
    sin nubes bajo los 5.000 pies o bajo del MSA (Mínimo de Seguridad del Aeródromo),
    sin cumulonimbus, y sin fenómenos de tiempo significativo en el aeródromo o alrededores
Temperatura: 14 °C
Rocío: 6 °C
Humedad_relativa: 59%
Presión: 1018 hPa
METAR del 23-05-2018 a las 21:00 UTC
METAR SCRD 232100Z 31004KT CAVOK 18/07 Q1017
Viento: dirección 310 grados, velocidad 4 nudos
Visibilidad: 10 km o más,
    sin nubes bajo los 5.000 pies o bajo del MSA (Mínimo de Seguridad del Aeródromo),
    sin cumulonimbus, y sin fenómenos de tiempo significativo en el aeródromo o alrededores
Temperatura: 18 °C
Rocío: 7 °C
Humedad_relativa: 49%
Presión: 1017 hPa
METAR del 23-05-2018 a las 20:00 UTC
METAR SCRD 232000Z 03003KT CAVOK 18/06 Q1017
Viento: dirección 030 grados, velocidad 3 nudos
Visibilidad: 10 km o más,
    sin nubes bajo los 5.000 pies o bajo del MSA (Mínimo de Seguridad del Aeródromo),
    sin cumulonimbus, y sin fenómenos de tiempo significativo en el aeródromo o alrededores
Temperatura: 18 °C
Rocío: 6 °C
Humedad_relativa: 45%
Presión: 1017 hPa
METAR del 23-05-2018 a las 19:00 UTC
METAR SCRD 231900Z 03005KT CAVOK 20/07 Q1017
Viento: dirección 030 grados, velocidad 5 nudos
Visibilidad: 10 km o más,
    sin nubes bajo los 5.000 pies o bajo del MSA (Mínimo de Seguridad del Aeródromo),
    sin cumulonimbus, y sin fenómenos de tiempo significativo en el aeródromo o alrededores
Temperatura: 20 °C
Rocío: 7 °C
Humedad_relativa: 43%
Presión: 1017 hPa
METAR del 23-05-2018 a las 18:00 UTC
METAR SCRD 231800Z 33003KT CAVOK 19/06 Q1018
Viento: dirección 330 grados, velocidad 3 nudos
Visibilidad: 10 km o más,
    sin nubes bajo los 5.000 pies o bajo del MSA (Mínimo de Seguridad del Aeródromo),
    sin cumulonimbus, y sin fenómenos de tiempo significativo en el aeródromo o alrededores
Temperatura: 19 °C
Rocío: 6 °C
Humedad_relativa: 43%
Presión: 1018 hPa
METAR del 23-05-2018 a las 17:00 UTC
METAR SCRD 231700Z 30006KT CAVOK 17/08 Q1018
Viento: dirección 300 grados, velocidad 6 nudos
Visibilidad: 10 km o más,
    sin nubes bajo los 5.000 pies o bajo del MSA (Mínimo de Seguridad del Aeródromo),
    sin cumulonimbus, y sin fenómenos de tiempo significativo en el aeródromo o alrededores
Temperatura: 17 °C
Rocío: 8 °C
Humedad_relativa: 55%
Presión: 1018 hPa
METAR del 23-05-2018 a las 16:00 UTC
METAR SCRD 231600Z 35004KT CAVOK 17/06 Q1019
Viento: dirección 350 grados, velocidad 4 nudos
Visibilidad: 10 km o más,
    sin nubes bajo los 5.000 pies o bajo del MSA (Mínimo de Seguridad del Aeródromo),
    sin cumulonimbus, y sin fenómenos de tiempo significativo en el aeródromo o alrededores
Temperatura: 17 °C
Rocío: 6 °C
Humedad_relativa: 48%
Presión: 1019 hPa
METAR del 23-05-2018 a las 16:00 UTC
METAR SCRD 231600Z 35004KT CAVOK 17/06 Q1019
Viento: dirección 350 grados, velocidad 4 nudos
Visibilidad: 10 km o más,
    sin nubes bajo los 5.000 pies o bajo del MSA (Mínimo de Seguridad del Aeródromo),
    sin cumulonimbus, y sin fenómenos de tiempo significativo en el aeródromo o alrededores
Temperatura: 17 °C
Rocío: 6 °C
Humedad_relativa: 48%
Presión: 1019 hPa
METAR del 23-05-2018 a las 15:00 UTC
METAR SCRD 231500Z 31004KT CAVOK 16/07 Q1019
Viento: dirección 310 grados, velocidad 4 nudos
Visibilidad: 10 km o más,
    sin nubes bajo los 5.000 pies o bajo del MSA (Mínimo de Seguridad del Aeródromo),
    sin cumulonimbus, y sin fenómenos de tiempo significativo en el aeródromo o alrededores
Temperatura: 16 °C
Rocío: 7 °C
Humedad_relativa: 55%
Presión: 1019 hPa
METAR del 23-05-2018 a las 15:00 UTC
METAR SCRD 231500Z 31004KT CAVOK 16/07 Q1019
Viento: dirección 310 grados, velocidad 4 nudos
Visibilidad: 10 km o más,
    sin nubes bajo los 5.000 pies o bajo del MSA (Mínimo de Seguridad del Aeródromo),
    sin cumulonimbus, y sin fenómenos de tiempo significativo en el aeródromo o alrededores
Temperatura: 16 °C
Rocío: 7 °C
Humedad_relativa: 55%
Presión: 1019 hPa